Time;durP1;ratioP1;P1;durP2;ratioP2;P2;SDS_P1;SDS_P2;PMS_P1;PMS_P2;Temp;Humidity;BMP_temperature;BMP_pressure;BME280_temperature;BME280_humidity;BME280_pressure;Samples;Min_cycle;Max_cycle;Signal;HPM_P1;HPM_P2
2021/12/13 00:06:12;;;;;;;36.63;28.52;;;3.10;83.10;;;;;;10828614;33;20052;-73
2021/12/13 00:12:28;;;;;;;30.98;24.80;;;3.00;83.10;;;;;;10825352;33;20047;-74
2021/12/13 00:18:36;;;;;;;29.17;23.55;;;3.00;83.30;;;;;;10828139;33;20344;-74
2021/12/13 00:24:41;;;;;;;28.05;19.30;;;3.10;83.30;;;;;;10828036;33;20090;-74
2021/12/13 00:31:33;;;;;;;25.75;19.75;;;3.10;83.20;;;;;;10828004;33;20021;-74
2021/12/13 00:37:44;;;;;;;35.20;24.23;;;3.00;83.20;;;;;;10829364;32;20046;-74
2021/12/13 00:44:09;;;;;;;32.70;21.15;;;3.00;83.30;;;;;;10828863;32;20032;-74
2021/12/13 00:51:08;;;;;;;36.25;28.90;;;3.00;83.20;;;;;;10830119;32;20054;-74
2021/12/13 00:57:31;;;;;;;32.30;20.67;;;3.00;83.20;;;;;;10828563;32;20020;-74
2021/12/13 01:03:43;;;;;;;31.30;21.33;;;2.90;83.20;;;;;;10680115;33;20113;-74
2021/12/13 01:10:17;;;;;;;34.17;26.42;;;3.00;83.30;;;;;;10640696;33;20029;-74
2021/12/13 01:16:36;;;;;;;33.95;24.02;;;3.10;83.40;;;;;;10719245;33;20029;-74
2021/12/13 01:22:56;;;;;;;31.85;22.65;;;3.10;83.40;;;;;;10717949;33;20378;-74
2021/12/13 01:29:04;;;;;;;25.98;19.83;;;3.10;83.40;;;;;;10717737;33;20412;-73
2021/12/13 01:35:12;;;;;;;28.23;19.48;;;3.00;83.30;;;;;;10718544;33;20354;-74
2021/12/13 01:41:19;;;;;;;23.70;18.83;;;3.00;83.40;;;;;;10817564;32;20050;-73
2021/12/13 01:47:23;;;;;;;28.73;19.58;;;3.00;83.40;;;;;;10684702;27;20075;-74
2021/12/13 01:53:54;;;;;;;25.00;21.50;;;2.90;83.40;;;;;;10799281;32;20290;-74
2021/12/13 02:00:08;;;;;;;25.00;18.77;;;2.90;83.40;;;;;;10821334;33;20032;-73
2021/12/13 02:06:23;;;;;;;30.42;22.83;;;3.00;83.40;;;;;;10825316;33;20027;-73
2021/12/13 02:12:29;;;;;;;24.50;17.77;;;3.00;83.60;;;;;;10825032;33;20020;-74
2021/12/13 02:18:35;;;;;;;22.67;17.60;;;2.90;83.80;;;;;;10824892;33;20408;-74
2021/12/13 02:24:39;;;;;;;32.97;23.35;;;2.80;83.70;;;;;;10811632;33;20020;-74
2021/12/13 02:30:53;;;;;;;26.10;21.15;;;2.80;83.80;;;;;;10810160;33;20449;-74
2021/12/13 02:36:56;;;;;;;28.33;22.62;;;2.80;84.00;;;;;;10824501;33;20075;-73
2021/12/13 02:42:59;;;;;;;24.52;18.87;;;2.80;84.00;;;;;;10824372;33;20344;-73
2021/12/13 02:49:06;;;;;;;20.50;16.85;;;2.80;84.00;;;;;;10824167;33;20047;-73
2021/12/13 02:55:14;;;;;;;23.83;17.55;;;2.80;83.90;;;;;;10824056;33;20068;-74
2021/12/13 03:01:24;;;;;;;28.48;20.90;;;2.80;83.90;;;;;;10820601;33;20052;-74
2021/12/13 03:07:34;;;;;;;26.42;19.42;;;2.80;83.90;;;;;;10823977;33;20050;-73
2021/12/13 03:13:37;;;;;;;30.95;23.20;;;2.90;84.00;;;;;;10823736;33;20043;-73
2021/12/13 03:19:42;;;;;;;19.27;15.30;;;2.90;83.90;;;;;;10823609;33;20024;-73
2021/12/13 03:26:03;;;;;;;20.65;15.98;;;2.90;83.80;;;;;;10823518;33;20024;-73
2021/12/13 03:32:11;;;;;;;20.10;14.13;;;2.90;83.90;;;;;;10823760;32;20023;-73
2021/12/13 03:38:33;;;;;;;19.83;14.97;;;2.90;84.00;;;;;;10829474;33;20028;-73
2021/12/13 03:44:39;;;;;;;18.23;14.95;;;2.90;83.90;;;;;;10829350;33;20043;-73
2021/12/13 03:50:46;;;;;;;17.77;13.50;;;2.90;84.10;;;;;;10829235;33;20021;-73
2021/12/13 03:56:50;;;;;;;17.23;13.02;;;2.80;84.00;;;;;;10829148;33;20051;-73
2021/12/13 04:02:55;;;;;;;17.23;12.43;;;2.80;84.10;;;;;;10828740;33;20032;-73
2021/12/13 04:08:59;;;;;;;15.63;11.57;;;2.80;84.00;;;;;;10828466;33;20023;-73
2021/12/13 04:15:19;;;;;;;29.92;21.98;;;2.80;84.10;;;;;;10828504;33;20020;-73
2021/12/13 04:21:25;;;;;;;25.75;19.33;;;2.80;84.40;;;;;;10828080;33;20059;-73
2021/12/13 04:27:34;;;;;;;17.52;12.80;;;2.80;84.40;;;;;;10828009;33;20017;-73
2021/12/13 04:33:41;;;;;;;20.52;13.73;;;2.80;84.20;;;;;;10828083;33;20020;-73
2021/12/13 04:39:49;;;;;;;17.73;12.98;;;2.70;84.20;;;;;;10827810;33;20027;-73
2021/12/13 04:45:58;;;;;;;16.70;12.88;;;2.70;84.30;;;;;;10823357;32;20435;-73
2021/12/13 04:52:09;;;;;;;;;;;2.70;84.30;;;;;;10827636;33;20024;-73
2021/12/13 04:58:12;;;;;;;20.50;15.65;;;2.70;84.30;;;;;;10827317;33;19942;-73
2021/12/13 05:04:15;;;;;;;17.95;13.70;;;2.70;84.30;;;;;;10827055;33;20062;-73
2021/12/13 05:10:17;;;;;;;16.48;12.32;;;2.70;84.20;;;;;;10826895;33;20035;-73
2021/12/13 05:16:45;;;;;;;20.30;14.60;;;2.70;84.30;;;;;;10826613;33;20025;-73
2021/12/13 05:23:20;;;;;;;23.77;14.87;;;2.60;84.10;;;;;;10822822;33;20054;-73
2021/12/13 05:30:00;;;;;;;21.35;14.43;;;2.70;84.30;;;;;;10826090;33;20028;-73
2021/12/13 05:36:24;;;;;;;22.17;18.33;;;2.70;84.10;;;;;;10826110;33;20049;-73
2021/12/13 05:42:44;;;;;;;21.60;16.05;;;2.90;84.30;;;;;;10825813;32;20051;-73
2021/12/13 05:48:50;;;;;;;19.25;14.32;;;3.00;84.10;;;;;;10825779;33;20019;-73
2021/12/13 05:54:58;;;;;;;19.95;14.63;;;3.10;84.10;;;;;;10825395;32;20039;-73
2021/12/13 06:01:04;;;;;;;19.90;16.02;;;3.20;84.00;;;;;;10825249;33;20024;-73
2021/12/13 06:07:24;;;;;;;24.23;15.57;;;3.30;83.90;;;;;;10825339;33;20046;-73
2021/12/13 06:13:46;;;;;;;22.37;15.50;;;3.30;83.90;;;;;;10825320;33;20008;-73
2021/12/13 06:20:00;;;;;;;19.40;15.13;;;3.50;83.90;;;;;;10811813;33;20086;-73
2021/12/13 06:26:12;;;;;;;17.10;12.75;;;3.50;83.70;;;;;;10808283;33;20016;-73
2021/12/13 06:32:37;;;;;;;24.17;18.15;;;3.60;83.70;;;;;;10811599;33;20430;-73
2021/12/13 06:38:52;;;;;;;19.12;14.07;;;3.80;83.60;;;;;;10823975;33;20059;-73
2021/12/13 06:44:55;;;;;;;22.37;16.80;;;3.80;83.20;;;;;;10810781;33;20024;-73
2021/12/13 06:50:56;;;;;;;20.45;16.73;;;3.80;83.30;;;;;;10823666;33;20324;-73
2021/12/13 06:57:13;;;;;;;18.67;15.48;;;4.00;83.30;;;;;;10823814;33;20367;-73
2021/12/13 07:03:23;;;;;;;20.50;15.75;;;4.10;83.00;;;;;;10821316;33;20031;-73
2021/12/13 07:09:25;;;;;;;21.45;17.10;;;4.20;83.10;;;;;;10810334;32;20024;-73
2021/12/13 07:15:32;;;;;;;23.45;18.35;;;4.30;82.70;;;;;;10822739;32;20463;-74
2021/12/13 07:21:46;;;;;;;19.37;15.55;;;4.40;82.80;;;;;;10815592;32;20344;-73
2021/12/13 07:27:50;;;;;;;21.60;16.55;;;4.50;82.70;;;;;;10829667;33;20055;-73
2021/12/13 07:33:52;;;;;;;20.60;16.08;;;4.60;82.30;;;;;;10825452;33;20343;-73
2021/12/13 07:40:18;;;;;;;24.45;17.87;;;4.60;82.30;;;;;;10829403;33;20422;-73
2021/12/13 07:46:28;;;;;;;24.23;17.12;;;4.30;82.40;;;;;;10827454;33;20198;-73
2021/12/13 07:52:38;;;;;;;22.95;16.20;;;4.40;82.80;;;;;;10802499;33;20028;-73
2021/12/13 07:58:49;;;;;;;19.33;14.25;;;4.60;82.70;;;;;;10787512;33;20020;-73
2021/12/13 08:05:05;;;;;;;26.95;17.77;;;4.50;82.30;;;;;;10791641;33;20033;-73
2021/12/13 08:11:07;;;;;;;22.65;15.82;;;4.50;83.10;;;;;;10791705;33;20016;-70
2021/12/13 08:17:31;;;;;;;22.15;15.30;;;4.60;83.00;;;;;;10820937;33;20058;-70
2021/12/13 08:23:47;;;;;;;22.08;14.68;;;4.50;82.60;;;;;;10827999;32;20423;-70
2021/12/13 08:29:50;;;;;;;18.27;13.85;;;4.40;83.20;;;;;;10827935;33;20047;-70
2021/12/13 08:36:01;;;;;;;21.52;15.50;;;4.40;83.20;;;;;;10827822;33;20019;-74
2021/12/13 08:42:18;;;;;;;22.33;16.05;;;4.60;83.30;;;;;;10827393;33;20032;-73
2021/12/13 08:48:20;;;;;;;19.67;14.43;;;4.70;82.90;;;;;;10825931;33;20046;-73
2021/12/13 08:54:51;;;;;;;22.73;18.02;;;4.60;82.90;;;;;;10822979;33;20380;-73
2021/12/13 09:01:06;;;;;;;15.82;11.75;;;4.60;83.30;;;;;;10826758;33;20028;-73
2021/12/13 09:07:12;;;;;;;15.00;12.40;;;4.70;83.70;;;;;;10826723;33;20090;-73
2021/12/13 09:13:17;;;;;;;13.30;11.07;;;5.00;83.80;;;;;;10826448;33;20302;-73
2021/12/13 09:19:30;;;;;;;18.17;12.02;;;5.20;83.50;;;;;;10825316;33;20340;-73
2021/12/13 09:25:37;;;;;;;17.83;12.52;;;5.30;83.70;;;;;;10825505;33;20024;-73
2021/12/13 09:31:40;;;;;;;18.75;12.68;;;5.60;83.60;;;;;;10825597;32;20020;-73
2021/12/13 09:37:44;;;;;;;17.30;12.98;;;5.80;83.40;;;;;;10825840;33;20024;-70
2021/12/13 09:44:08;;;;;;;15.00;11.50;;;5.90;82.60;;;;;;10841676;27;20337;-70
2021/12/13 09:50:18;;;;;;;19.87;14.82;;;5.80;83.20;;;;;;10862601;32;20046;-70
2021/12/13 09:56:23;;;;;;;12.05;9.23;;;5.80;82.50;;;;;;10849300;32;20051;-70
2021/12/13 10:02:31;;;;;;;15.82;11.55;;;5.70;82.80;;;;;;10861983;32;20028;-70
2021/12/13 10:09:35;;;;;;;12.20;9.27;;;6.00;83.60;;;;;;10861807;32;20054;-70
2021/12/13 10:15:49;;;;;;;17.05;11.07;;;6.30;83.10;;;;;;10899767;32;20031;-70
2021/12/13 10:21:52;;;;;;;17.45;12.82;;;6.50;82.60;;;;;;10899739;32;20042;-70
2021/12/13 10:27:55;;;;;;;19.10;15.05;;;6.70;82.70;;;;;;10899127;32;20400;-70
2021/12/13 10:34:02;;;;;;;13.07;9.90;;;6.80;82.20;;;;;;10895760;32;20411;-69
2021/12/13 10:40:38;;;;;;;18.90;13.65;;;6.70;82.10;;;;;;10897875;32;20039;-69
2021/12/13 10:47:06;;;;;;;13.93;11.15;;;6.80;82.50;;;;;;10827674;32;20074;-68
2021/12/13 10:53:10;;;;;;;18.58;12.95;;;6.90;82.00;;;;;;10721404;32;20067;-69
2021/12/13 10:59:20;;;;;;;10.43;8.70;;;7.20;81.90;;;;;;10715789;32;20067;-69
2021/12/13 11:05:24;;;;;;;15.63;11.60;;;7.40;81.70;;;;;;10713622;32;20033;-69
2021/12/13 11:12:04;;;;;;;16.62;11.43;;;7.60;81.80;;;;;;10716058;33;20060;-69
2021/12/13 11:18:11;;;;;;;13.40;10.38;;;8.20;81.40;;;;;;10733005;32;20382;-68
2021/12/13 11:24:19;;;;;;;14.05;11.12;;;8.40;80.50;;;;;;10863541;32;20035;-69
2021/12/13 11:30:26;;;;;;;12.85;8.20;;;8.70;80.50;;;;;;10866652;32;20023;-69
2021/12/13 11:37:00;;;;;;;12.35;9.00;;;8.80;80.20;;;;;;10866565;32;20356;-69
2021/12/13 11:43:44;;;;;;;14.30;10.15;;;9.00;80.20;;;;;;10868837;32;20058;-69
2021/12/13 11:49:59;;;;;;;16.70;11.93;;;9.00;80.00;;;;;;10855742;32;20039;-69
2021/12/13 11:56:26;;;;;;;17.15;12.30;;;9.30;80.20;;;;;;10867385;32;20046;-69
2021/12/13 12:02:50;;;;;;;16.62;11.32;;;9.50;79.20;;;;;;10866999;32;20054;-69
2021/12/13 12:09:13;;;;;;;13.45;9.02;;;9.70;78.50;;;;;;10866935;32;20024;-69
2021/12/13 12:15:21;;;;;;;12.95;8.73;;;9.70;79.10;;;;;;10863826;32;20036;-69
2021/12/13 12:21:32;;;;;;;12.25;9.82;;;9.80;79.50;;;;;;10827742;33;20294;-69
2021/12/13 12:27:36;;;;;;;9.88;7.25;;;9.80;78.80;;;;;;10827711;33;20396;-69
2021/12/13 12:33:40;;;;;;;11.57;7.32;;;9.80;79.50;;;;;;10827877;33;20023;-69
2021/12/13 12:39:54;;;;;;;9.95;6.37;;;9.90;79.40;;;;;;10823527;33;20062;-69
2021/12/13 12:46:01;;;;;;;10.38;7.28;;;10.00;79.20;;;;;;10827233;33;20024;-69
2021/12/13 12:52:09;;;;;;;10.27;6.80;;;10.10;79.50;;;;;;10823255;33;20046;-69
2021/12/13 12:58:29;;;;;;;9.57;7.20;;;10.00;78.90;;;;;;10825158;32;20027;-70
2021/12/13 13:04:40;;;;;;;8.45;5.20;;;10.10;79.60;;;;;;10826390;32;20393;-68
2021/12/13 13:16:52;;;;;;;9.63;6.65;;;10.70;79.20;;;;;;10826758;32;20059;-70
2021/12/13 13:22:58;;;;;;;11.95;7.90;;;10.90;79.10;;;;;;10826379;33;20348;-70
2021/12/13 13:29:06;;;;;;;8.88;5.62;;;11.10;79.00;;;;;;10826311;33;20028;-70
2021/12/13 13:35:09;;;;;;;9.43;6.55;;;11.20;79.00;;;;;;10825907;33;20332;-70
2021/12/13 13:41:20;;;;;;;7.85;5.55;;;11.00;79.90;;;;;;10825958;33;20016;-69
2021/12/13 13:47:27;;;;;;;10.90;7.57;;;11.20;80.00;;;;;;10825730;33;20046;-70
2021/12/13 13:53:33;;;;;;;11.15;7.45;;;11.30;79.80;;;;;;10825781;32;20067;-70
2021/12/13 13:59:40;;;;;;;9.27;6.35;;;11.30;79.90;;;;;;10825508;33;20012;-69
2021/12/13 14:05:45;;;;;;;17.35;6.90;;;11.40;79.90;;;;;;10812112;33;20059;-70
2021/12/13 14:11:52;;;;;;;9.23;5.90;;;11.50;79.90;;;;;;10824598;33;20020;-70
2021/12/13 14:18:16;;;;;;;10.32;7.37;;;11.90;79.30;;;;;;10822761;33;20028;-70
2021/12/13 14:24:30;;;;;;;9.00;6.03;;;12.20;78.90;;;;;;10824848;33;20082;-70
2021/12/13 14:30:37;;;;;;;9.73;6.50;;;12.80;77.80;;;;;;10842970;32;20028;-69
2021/12/13 14:36:49;;;;;;;9.88;6.20;;;12.60;78.00;;;;;;10861303;32;20066;-70
2021/12/13 14:42:51;;;;;;;13.02;7.22;;;11.80;79.40;;;;;;10859868;32;20031;-70
2021/12/13 14:49:16;;;;;;;13.15;8.23;;;11.20;80.50;;;;;;10861506;32;20047;-75
2021/12/13 14:55:23;;;;;;;9.27;5.97;;;10.70;81.00;;;;;;10862777;32;20046;-75
2021/12/13 15:01:30;;;;;;;13.25;7.20;;;10.40;81.50;;;;;;10860459;32;20024;-75
2021/12/13 15:07:37;;;;;;;13.23;8.93;;;10.20;81.50;;;;;;10824638;33;20054;-75
2021/12/13 15:13:59;;;;;;;12.23;8.18;;;10.10;81.20;;;;;;10824557;33;20119;-75
2021/12/13 15:20:11;;;;;;;14.23;7.78;;;9.90;81.20;;;;;;10824859;33;20400;-75
2021/12/13 15:26:27;;;;;;;12.68;9.20;;;9.60;81.40;;;;;;10835536;32;20404;-75
2021/12/13 15:32:30;;;;;;;12.02;8.30;;;9.50;81.50;;;;;;10849759;32;20081;-75
2021/12/13 15:38:33;;;;;;;19.70;11.55;;;9.40;81.30;;;;;;10866167;32;20023;-75
2021/12/13 15:44:35;;;;;;;18.98;12.32;;;9.30;81.20;;;;;;10866134;32;20054;-75
2021/12/13 15:50:38;;;;;;;17.23;14.23;;;9.20;81.10;;;;;;10858592;32;20024;-75
2021/12/13 15:56:46;;;;;;;19.45;13.07;;;9.20;80.80;;;;;;10866076;32;20462;-75
2021/12/13 16:02:48;;;;;;;20.12;13.00;;;9.20;80.70;;;;;;10865283;32;20392;-75
2021/12/13 16:08:59;;;;;;;14.15;8.90;;;9.20;80.50;;;;;;10866131;32;20050;-75
2021/12/13 16:15:10;;;;;;;22.35;14.77;;;9.20;80.30;;;;;;10861993;32;20054;-75
2021/12/13 16:21:32;;;;;;;19.80;11.73;;;9.20;80.40;;;;;;10862973;32;20031;-75
2021/12/13 16:27:57;;;;;;;16.48;11.32;;;9.00;80.40;;;;;;10864781;32;20031;-75
2021/12/13 16:34:11;;;;;;;14.00;10.52;;;8.90;80.40;;;;;;10866500;32;20070;-75
2021/12/13 16:40:13;;;;;;;21.40;15.57;;;8.70;80.40;;;;;;10855192;32;20061;-75
2021/12/13 16:46:17;;;;;;;17.42;13.05;;;8.60;80.80;;;;;;10414811;32;13010617;-75
2021/12/13 16:52:24;;;;;;;19.42;15.02;;;8.70;80.60;;;;;;10784037;33;20431;-75
2021/12/13 16:58:31;;;;;;;17.70;10.73;;;8.70;80.50;;;;;;10790987;33;20064;-75
2021/12/13 17:04:42;;;;;;;25.67;16.87;;;8.60;80.20;;;;;;10796665;33;20325;-75
2021/12/13 17:10:46;;;;;;;23.80;16.23;;;8.40;80.60;;;;;;10838407;32;20031;-76
2021/12/13 17:16:59;;;;;;;28.75;16.98;;;8.40;80.50;;;;;;10852560;32;20031;-70
2021/12/13 17:23:38;;;;;;;21.92;16.73;;;8.50;80.20;;;;;;10863335;32;20366;-70
2021/12/13 17:30:48;;;;;;;34.38;21.33;;;8.50;80.10;;;;;;10863503;32;20012;-70
2021/12/13 17:36:50;;;;;;;29.75;21.62;;;8.50;80.10;;;;;;10863187;32;20019;-70
2021/12/13 17:43:07;;;;;;;24.60;18.23;;;8.40;79.90;;;;;;10854210;27;20039;-70
2021/12/13 17:49:09;;;;;;;30.62;20.42;;;8.40;79.60;;;;;;10862664;32;20055;-70
2021/12/13 17:55:12;;;;;;;31.23;21.70;;;8.20;79.70;;;;;;10862325;32;20024;-70
2021/12/13 18:01:20;;;;;;;26.87;21.52;;;8.20;79.80;;;;;;10862416;32;20023;-70
2021/12/13 18:07:28;;;;;;;37.65;25.33;;;8.10;79.80;;;;;;10858273;32;20108;-70
2021/12/13 18:13:44;;;;;;;27.52;21.02;;;7.90;80.30;;;;;;10862403;32;20062;-70
2021/12/13 18:19:58;;;;;;;27.55;21.58;;;7.90;80.70;;;;;;10861073;32;20023;-70
2021/12/13 18:26:09;;;;;;;33.97;22.42;;;7.90;80.40;;;;;;10861912;32;20055;-70
2021/12/13 18:32:11;;;;;;;26.60;19.60;;;7.80;80.20;;;;;;10861779;32;20020;-70
2021/12/13 18:38:25;;;;;;;20.55;15.73;;;7.80;80.10;;;;;;10857562;32;20023;-70
2021/12/13 18:44:39;;;;;;;26.75;21.17;;;7.70;80.00;;;;;;10861472;32;20335;-70
2021/12/13 18:50:47;;;;;;;30.35;22.90;;;7.60;80.00;;;;;;10857397;32;20039;-70
2021/12/13 18:56:49;;;;;;;27.98;24.95;;;7.50;80.00;;;;;;10848028;32;20400;-70
2021/12/13 19:03:06;;;;;;;32.03;22.30;;;7.50;80.00;;;;;;10843909;32;20039;-70
2021/12/13 19:09:12;;;;;;;25.73;18.77;;;7.40;80.00;;;;;;10867475;32;20047;-70
2021/12/13 19:15:30;;;;;;;25.73;19.50;;;7.30;79.90;;;;;;10867400;32;20024;-70
2021/12/13 19:21:44;;;;;;;25.05;17.45;;;7.20;80.00;;;;;;10867199;32;20054;-70
2021/12/13 19:27:49;;;;;;;24.77;17.10;;;7.20;80.00;;;;;;10866688;32;20035;-70
2021/12/13 19:34:10;;;;;;;34.47;20.65;;;7.10;80.00;;;;;;10866762;32;20430;-69
2021/12/13 19:40:19;;;;;;;25.42;18.98;;;7.00;80.00;;;;;;10866740;32;20024;-70
2021/12/13 19:46:46;;;;;;;24.00;21.02;;;7.00;80.10;;;;;;10866469;32;20351;-69
2021/12/13 19:53:09;;;;;;;27.35;23.77;;;6.90;80.10;;;;;;10866456;32;20046;-69
2021/12/13 19:59:24;;;;;;;29.73;22.60;;;6.90;80.10;;;;;;10866084;32;20050;-70
2021/12/13 20:05:45;;;;;;;32.47;26.12;;;6.80;80.10;;;;;;10865667;32;20031;-70
2021/12/13 20:11:50;;;;;;;36.45;28.20;;;6.80;80.30;;;;;;10865682;32;20024;-69
2021/12/13 20:18:12;;;;;;;35.10;25.10;;;6.80;80.20;;;;;;10865048;32;20023;-69
2021/12/13 20:24:22;;;;;;;32.58;26.70;;;6.70;80.20;;;;;;10865209;32;20027;-70
2021/12/13 20:30:35;;;;;;;34.35;28.20;;;6.70;80.20;;;;;;10862716;32;20426;-70
2021/12/13 20:36:50;;;;;;;33.33;25.48;;;6.50;80.20;;;;;;10865032;32;20050;-70
2021/12/13 20:43:00;;;;;;;35.97;25.88;;;6.50;80.30;;;;;;10864767;32;20031;-70
2021/12/13 20:49:14;;;;;;;28.87;22.85;;;6.50;80.40;;;;;;10864677;32;20050;-69
2021/12/13 20:55:47;;;;;;;30.62;25.10;;;6.50;80.40;;;;;;10864679;32;20024;-69
2021/12/13 21:01:57;;;;;;;36.55;26.52;;;6.40;80.30;;;;;;10864618;32;20031;-70
2021/12/13 21:08:06;;;;;;;32.97;26.05;;;6.20;80.40;;;;;;10864133;32;20050;-69
2021/12/13 21:14:14;;;;;;;28.73;22.00;;;6.20;80.40;;;;;;10850690;32;20058;-70
2021/12/13 21:20:22;;;;;;;31.00;22.52;;;6.20;80.50;;;;;;10863824;32;20038;-70
2021/12/13 21:26:28;;;;;;;38.33;25.05;;;6.20;80.50;;;;;;10862669;32;20062;-70
2021/12/13 21:32:35;;;;;;;29.17;23.35;;;6.20;80.50;;;;;;10863362;32;20047;-70
2021/12/13 21:45:19;;;;;;;33.83;26.12;;;6.10;80.40;;;;;;10863143;32;20051;-70
2021/12/13 21:51:47;;;;;;;36.83;28.73;;;6.10;80.50;;;;;;10862804;32;20058;-70
2021/12/13 21:58:05;;;;;;;29.23;25.50;;;6.00;80.40;;;;;;10861258;32;20019;-70
2021/12/13 22:04:21;;;;;;;36.92;28.35;;;5.90;80.60;;;;;;10862364;32;20032;-69
2021/12/13 22:10:38;;;;;;;39.38;31.83;;;5.90;80.50;;;;;;10862362;32;20050;-70
2021/12/13 22:16:51;;;;;;;33.78;25.67;;;5.90;80.70;;;;;;10849136;32;20450;-70
2021/12/13 22:22:56;;;;;;;34.50;26.77;;;5.80;80.80;;;;;;10862031;32;20023;-69
2021/12/13 22:28:58;;;;;;;39.30;29.90;;;5.80;80.50;;;;;;10862071;32;20028;-70
2021/12/13 22:35:07;;;;;;;33.58;25.58;;;5.60;81.00;;;;;;10861778;32;20074;-70
2021/12/13 22:41:32;;;;;;;32.90;25.83;;;5.70;80.90;;;;;;10861371;32;20051;-69
2021/12/13 22:47:35;;;;;;;40.12;31.17;;;5.60;80.80;;;;;;10861212;32;20024;-69
2021/12/13 22:53:40;;;;;;;38.60;28.00;;;5.60;81.10;;;;;;10848279;32;20054;-70
2021/12/13 22:59:46;;;;;;;42.95;33.55;;;5.50;81.20;;;;;;10850566;32;20293;-75
2021/12/13 23:05:55;;;;;;;32.97;26.80;;;5.50;81.30;;;;;;10864606;32;20050;-75
2021/12/13 23:18:26;;;;;;;37.50;33.05;;;5.30;81.30;;;;;;10864803;32;20020;-75
2021/12/13 23:24:29;;;;;;;31.37;26.65;;;5.20;81.30;;;;;;10864901;32;20035;-75
2021/12/13 23:30:37;;;;;;;34.45;24.98;;;5.30;81.10;;;;;;10852663;32;20051;-75
2021/12/13 23:36:50;;;;;;;32.72;24.48;;;5.40;80.90;;;;;;10866007;32;20035;-75
2021/12/13 23:49:15;;;;;;;33.38;26.67;;;5.30;80.80;;;;;;10866819;32;20050;-75
2021/12/13 23:55:33;;;;;;;30.65;22.80;;;5.30;80.70;;;;;;10870542;32;20431;-75
